Time;durP1;ratioP1;P1;durP2;ratioP2;P2;SDS_P1;SDS_P2;PMS_P1;PMS_P2;Temp;Humidity;BMP_temperature;BMP_pressure;BME280_temperature;BME280_humidity;BME280_pressure;Samples;Min_cycle;Max_cycle;Signal;HPM_P1;HPM_P2
2023/05/30 00:01:54;;;;;;;12.03;7.67;;;;;;;-143.21;85.06;72121.75;4970598;28;20280;-82
2023/05/30 00:04:21;;;;;;;15.70;8.20;;;;;;;-143.21;85.38;72121.75;4970726;28;20215;-82
2023/05/30 00:06:49;;;;;;;13.43;8.23;;;;;;;-143.21;85.88;72133.66;4967878;28;20197;-82
2023/05/30 00:09:16;;;;;;;18.30;10.30;;;;;;;-143.21;86.28;72129.69;4970806;28;20738;-82
2023/05/30 00:11:43;;;;;;;17.37;10.30;;;;;;;-143.21;86.80;72129.69;4970964;28;20208;-82
2023/05/30 00:14:10;;;;;;;16.50;10.20;;;;;;;-143.21;86.37;72129.69;4970683;28;20212;-86
2023/05/30 00:16:38;;;;;;;16.47;9.63;;;;;;;-143.21;86.46;72123.75;4967843;28;20216;-86
2023/05/30 00:19:07;;;;;;;15.33;8.87;;;;;;;-143.21;86.32;72127.72;4971918;28;20259;-86
2023/05/30 00:21:35;;;;;;;16.80;7.80;;;;;;;-143.21;85.99;72135.63;4971342;28;20284;-85
2023/05/30 00:24:02;;;;;;;12.03;7.73;;;;;;;-143.21;86.25;72151.50;4972282;28;20264;-87
2023/05/30 00:26:29;;;;;;;16.43;9.00;;;;;;;-143.21;86.79;72157.44;4972464;28;20193;-87
2023/05/30 00:28:55;;;;;;;14.17;8.13;;;;;;;-143.21;87.19;72171.34;4971505;28;20264;-87
2023/05/30 00:31:23;;;;;;;12.53;8.27;;;;;;;-143.21;87.68;72171.34;4975727;28;20591;-87
2023/05/30 00:33:51;;;;;;;15.83;8.47;;;;;;;-143.21;87.27;72165.38;4975153;28;20299;-86
2023/05/30 00:36:19;;;;;;;14.70;7.83;;;;;;;-143.21;86.85;72157.44;4971839;28;20583;-87
2023/05/30 00:38:46;;;;;;;12.87;8.33;;;;;;;-143.21;86.59;72149.53;4971031;28;20225;-86
2023/05/30 00:41:13;;;;;;;11.77;8.40;;;;;;;-143.21;86.67;72147.53;4974283;28;20618;-86
2023/05/30 00:43:40;;;;;;;14.43;8.63;;;;;;;-143.21;86.80;72157.44;4966902;28;20209;-86
2023/05/30 00:46:10;;;;;;;16.23;8.60;;;;;;;-143.21;87.19;72157.44;4974371;28;20984;-86
2023/05/30 00:48:37;;;;;;;9.90;7.73;;;;;;;-143.21;87.46;72169.34;4970711;28;20647;-88
2023/05/30 00:51:10;;;;;;;13.03;8.33;;;;;;;-143.21;87.60;72159.44;4974784;28;20207;-88
2023/05/30 00:53:38;;;;;;;13.47;8.60;;;;;;;-143.21;87.09;72161.41;4975030;28;20660;-88
2023/05/30 00:56:07;;;;;;;11.57;8.30;;;;;;;-143.21;86.99;72153.47;4974337;28;20615;-87
2023/05/30 00:58:34;;;;;;;16.53;8.07;;;;;;;-143.21;86.69;72155.47;4974166;28;20225;-89
2023/05/30 01:01:01;;;;;;;17.17;8.17;;;;;;;-143.21;86.47;72153.47;4974294;28;20216;-88
2023/05/30 01:03:32;;;;;;;11.27;7.87;;;;;;;-143.21;86.74;72159.44;4973421;28;20212;-89
2023/05/30 01:05:59;;;;;;;14.47;8.10;;;;;;;-143.21;86.69;72165.38;4973008;28;20197;-88
2023/05/30 01:08:28;;;;;;;15.07;8.27;;;;;;;-143.21;86.86;72161.41;4972849;28;20208;-89
2023/05/30 01:11:03;;;;;;;10.83;7.60;;;;;;;-143.21;86.37;72163.41;4973862;28;20357;-89
2023/05/30 01:13:40;;;;;;;16.77;8.30;;;;;;;-143.21;85.95;72163.41;4971666;28;20216;-88
2023/05/30 01:16:11;;;;;;;12.13;7.63;;;;;;;-143.21;85.66;72175.31;4974036;28;20212;-89
2023/05/30 01:18:41;;;;;;;14.07;7.13;;;;;;;-143.21;86.04;72181.25;4973715;28;20280;-88
2023/05/30 01:21:10;;;;;;;11.97;8.07;;;;;;;-143.21;86.87;72187.19;4971498;28;20201;-88
2023/05/30 01:24:07;;;;;;;13.13;7.73;;;;;;;-143.21;87.25;72181.25;4973160;28;20204;-89
2023/05/30 01:27:03;;;;;;;13.60;7.47;;;;;;;-143.21;86.69;72189.19;4965907;28;20209;-88
2023/05/30 01:29:34;;;;;;;13.60;6.93;;;;;;;-143.21;86.93;72197.13;4971917;28;20232;-89
2023/05/30 01:32:02;;;;;;;17.73;8.07;;;;;;;-143.21;87.12;72193.16;4972277;28;20239;-89
2023/05/30 01:34:30;;;;;;;12.93;7.73;;;;;;;-143.21;87.62;72195.13;4973550;28;20237;-89
2023/05/30 01:36:57;;;;;;;13.43;8.20;;;;;;;-143.21;87.75;72189.19;4973702;28;20212;-89
2023/05/30 01:39:23;;;;;;;13.00;8.03;;;;;;;-143.21;88.18;72201.09;4969213;28;20209;-87
2023/05/30 01:42:02;;;;;;;15.17;8.57;;;;;;;-143.21;88.10;72197.13;4972612;28;20213;-86
2023/05/30 01:44:34;;;;;;;11.27;7.27;;;;;;;-143.21;87.75;72195.13;4972941;28;20205;-87
2023/05/30 01:47:05;;;;;;;14.83;7.73;;;;;;;-143.21;87.60;72199.09;4973216;28;20201;-86
2023/05/30 01:49:37;;;;;;;14.13;8.00;;;;;;;-143.21;87.93;72197.13;4973098;28;20189;-87
2023/05/30 01:52:11;;;;;;;16.93;8.03;;;;;;;-143.21;88.19;72201.09;4973664;28;20201;-88
2023/05/30 01:54:41;;;;;;;11.30;7.73;;;;;;;-143.21;87.34;72212.97;4973342;28;20677;-86
2023/05/30 01:57:12;;;;;;;13.37;7.63;;;;;;;-143.21;87.73;72222.91;4973171;28;20280;-90
2023/05/30 01:59:42;;;;;;;14.83;7.80;;;;;;;-143.21;88.55;72228.84;4972696;28;20205;-89
2023/05/30 02:02:10;;;;;;;13.03;8.00;;;;;;;-143.21;89.05;72236.78;4973388;28;20825;-87
2023/05/30 02:04:38;;;;;;;13.67;7.90;;;;;;;-143.21;89.24;72234.78;4973069;28;20201;-87
2023/05/30 02:07:05;;;;;;;10.73;7.30;;;;;;;-143.21;88.83;72224.88;4970982;28;20213;-87
2023/05/30 02:09:32;;;;;;;12.40;7.57;;;;;;;-143.21;88.24;72222.91;4974670;28;20212;-87
2023/05/30 02:11:58;;;;;;;20.27;7.27;;;;;;;-143.21;87.53;72224.88;4971815;28;20300;-87
2023/05/30 02:14:25;;;;;;;17.13;7.63;;;;;;;-143.21;87.49;72234.78;4973779;28;20648;-86
2023/05/30 02:16:54;;;;;;;14.47;7.60;;;;;;;-143.21;87.91;72240.75;4980943;28;20209;-87
2023/05/30 02:19:21;;;;;;;13.80;7.60;;;;;;;-143.21;87.84;72252.63;4979703;28;20250;-86
2023/05/30 02:21:48;;;;;;;10.87;7.20;;;;;;;-143.21;88.11;72266.53;4979187;28;20215;-87
2023/05/30 02:24:15;;;;;;;11.50;7.53;;;;;;;-143.21;88.58;72270.50;4977886;28;20222;-86
2023/05/30 02:26:42;;;;;;;10.03;6.77;;;;;;;-143.21;88.66;72270.50;4973830;28;20227;-87
2023/05/30 02:29:09;;;;;;;13.30;7.70;;;;;;;-143.21;89.30;72276.44;4984544;28;20213;-86
2023/05/30 02:31:35;;;;;;;11.13;7.20;;;;;;;-143.21;89.15;72278.41;4977642;28;20236;-86
2023/05/30 02:34:04;;;;;;;12.70;7.17;;;;;;;-143.21;89.24;72272.47;4973951;28;20296;-86
2023/05/30 02:36:30;;;;;;;10.87;7.60;;;;;;;-143.21;88.86;72258.59;4980218;28;20208;-89
2023/05/30 02:38:57;;;;;;;12.83;7.10;;;;;;;-143.21;88.59;72250.66;4969693;28;20264;-88
2023/05/30 02:41:24;;;;;;;15.27;7.23;;;;;;;-143.21;88.76;72250.66;4974601;28;20220;-89
2023/05/30 02:43:51;;;;;;;12.40;7.70;;;;;;;-143.21;88.38;72250.66;4968749;28;20551;-89
2023/05/30 02:46:18;;;;;;;12.60;6.77;;;;;;;-143.21;88.15;72248.66;4973574;28;20201;-88
2023/05/30 02:48:45;;;;;;;10.30;6.53;;;;;;;-143.21;87.84;72258.59;4973078;28;20204;-89
2023/05/30 02:51:13;;;;;;;11.73;7.30;;;;;;;-143.21;88.38;72264.53;4972069;28;20211;-89
2023/05/30 02:53:41;;;;;;;14.67;7.67;;;;;;;-143.21;88.85;72256.59;4971677;28;20220;-89
2023/05/30 02:56:08;;;;;;;16.27;7.80;;;;;;;-143.21;89.05;72254.63;4969196;28;20213;-88
2023/05/30 02:58:34;;;;;;;16.17;7.13;;;;;;;-143.21;88.50;72256.59;4970199;28;20618;-88
2023/05/30 03:01:02;;;;;;;15.00;7.13;;;;;;;-143.21;88.65;72254.63;4973712;28;20205;-89
2023/05/30 03:03:29;;;;;;;12.70;7.23;;;;;;;-143.21;88.08;72252.63;4972875;28;20676;-88
2023/05/30 03:05:57;;;;;;;15.93;8.10;;;;;;;-143.21;87.90;72254.63;4971823;28;20196;-87
2023/05/30 03:08:25;;;;;;;20.13;7.90;;;;;;;-143.21;87.93;72258.59;4970881;28;20503;-87
2023/05/30 03:10:52;;;;;;;17.87;7.93;;;;;;;-143.21;88.40;72256.59;4972445;28;20201;-87
2023/05/30 03:13:19;;;;;;;13.37;7.87;;;;;;;-143.21;88.98;72258.59;4970968;28;20205;-87
2023/05/30 03:15:45;;;;;;;17.03;7.67;;;;;;;-143.21;88.79;72260.56;4971880;28;20204;-87
2023/05/30 03:18:12;;;;;;;12.00;7.57;;;;;;;-143.21;88.98;72254.63;4971676;28;20228;-87
2023/05/30 03:20:40;;;;;;;20.60;8.07;;;;;;;-143.21;88.54;72252.63;4971930;28;20215;-87
2023/05/30 03:23:07;;;;;;;19.50;7.97;;;;;;;-143.21;88.37;72252.63;4971970;28;20219;-88
2023/05/30 03:25:36;;;;;;;14.40;7.93;;;;;;;-143.21;88.29;72254.63;4971588;28;20204;-88
2023/05/30 03:28:06;;;;;;;17.53;7.93;;;;;;;-143.21;87.96;72248.66;4971831;28;20215;-87
2023/05/30 03:30:32;;;;;;;23.13;8.70;;;;;;;-143.21;88.11;72250.66;4971727;28;20727;-87
2023/05/30 03:32:59;;;;;;;15.07;8.40;;;;;;;-143.21;87.98;72254.63;4971593;28;20240;-87
2023/05/30 03:35:26;;;;;;;13.43;7.77;;;;;;;-143.21;87.54;72254.63;4971882;28;20212;-87
2023/05/30 03:37:53;;;;;;;15.03;9.50;;;;;;;-143.21;87.81;72266.53;4968678;28;20192;-87
2023/05/30 03:40:20;;;;;;;14.50;7.77;;;;;;;-143.21;88.45;72276.44;4971591;28;20205;-87
2023/05/30 03:42:48;;;;;;;15.30;8.50;;;;;;;-143.21;89.20;72272.47;4967925;28;20204;-86
2023/05/30 03:45:15;;;;;;;18.97;8.27;;;;;;;-143.21;89.29;72272.47;4970937;28;20561;-86
2023/05/30 03:47:42;;;;;;;12.23;8.50;;;;;;;-143.21;88.98;72266.53;4966990;28;20610;-86
2023/05/30 03:50:09;;;;;;;21.83;8.17;;;;;;;-143.21;89.23;72268.50;4971057;28;20228;-86
2023/05/30 03:52:36;;;;;;;18.03;8.97;;;;;;;-143.21;89.41;72262.56;4970764;28;20296;-87
2023/05/30 03:55:03;;;;;;;22.07;9.10;;;;;;;-143.21;88.58;72272.47;4971520;28;20205;-87
2023/05/30 03:57:30;;;;;;;18.07;8.87;;;;;;;-143.21;88.32;72278.41;4971118;28;20197;-86
2023/05/30 03:59:58;;;;;;;26.63;9.77;;;;;;;-143.21;88.51;72284.38;4970857;28;20269;-88
2023/05/30 04:02:25;;;;;;;20.43;9.70;;;;;;;-143.21;88.84;72294.28;4973368;28;20200;-88
2023/05/30 04:04:53;;;;;;;21.43;9.53;;;;;;;-143.21;88.78;72280.41;4975564;28;20292;-87
2023/05/30 04:07:20;;;;;;;26.50;9.77;;;;;;;-143.21;88.84;72286.34;4971690;28;20208;-89
2023/05/30 04:09:46;;;;;;;28.20;10.17;;;;;;;-143.21;88.84;72290.31;4971304;28;20620;-89
2023/05/30 04:12:13;;;;;;;35.73;11.00;;;;;;;-143.21;89.00;72292.31;4974767;28;20688;-85
2023/05/30 04:14:40;;;;;;;28.47;10.17;;;;;;;-143.21;89.34;72286.34;4974992;28;20208;-86
2023/05/30 04:17:08;;;;;;;21.67;10.07;;;;;;;-143.21;89.90;72286.34;4974588;28;20200;-85
2023/05/30 04:19:35;;;;;;;24.70;10.30;;;;;;;-143.21;90.11;72278.41;4973987;28;20232;-84
2023/05/30 04:22:01;;;;;;;27.27;10.43;;;;;;;-143.21;89.58;72278.41;4970899;28;20194;-84
2023/05/30 04:24:30;;;;;;;31.20;10.27;;;;;;;-143.21;89.32;72280.41;4974162;28;20205;-84
2023/05/30 04:26:57;;;;;;;25.13;10.07;;;;;;;-143.21;89.77;72272.47;4974574;28;20201;-83
2023/05/30 04:29:24;;;;;;;35.80;10.50;;;;;;;-143.21;89.82;72266.53;4971604;28;20208;-83
2023/05/30 04:31:51;;;;;;;42.27;11.90;;;;;;;-143.21;89.36;72252.63;4974691;28;20319;-84
2023/05/30 04:34:19;;;;;;;39.43;15.60;;;;;;;-143.21;89.63;72248.66;4973903;28;20240;-86
2023/05/30 04:36:46;;;;;;;34.07;13.07;;;;;;;-143.21;89.32;72236.78;4971153;28;20213;-85
2023/05/30 04:39:13;;;;;;;40.30;12.20;;;;;;;-143.21;88.72;72226.84;4973895;28;20279;-84
2023/05/30 04:41:40;;;;;;;25.50;10.63;;;;;;;-143.21;88.99;72236.78;4969214;28;20267;-83
2023/05/30 04:44:07;;;;;;;25.00;11.13;;;;;;;-143.21;89.04;72232.81;4972679;28;20215;-85
2023/05/30 04:46:35;;;;;;;25.90;11.47;;;;;;;-143.21;89.49;72226.84;4971047;28;20204;-83
2023/05/30 04:49:02;;;;;;;38.73;12.53;;;;;;;-143.21;89.27;72222.91;4973706;28;20205;-85
2023/05/30 04:51:32;;;;;;;21.77;11.37;;;;;;;-143.21;88.74;72209.00;4969785;28;20211;-83
2023/05/30 04:53:59;;;;;;;24.00;11.50;;;;;;;-143.21;89.01;72207.03;4972889;28;20259;-79
2023/05/30 04:56:26;;;;;;;25.63;13.07;;;;;;;-143.21;89.04;72199.09;4971512;28;20222;-79
2023/05/30 04:58:53;;;;;;;24.27;12.37;;;;;;;-143.21;88.72;72195.13;4969252;28;20229;-80
2023/05/30 05:01:20;;;;;;;21.43;11.93;;;;;;;-143.21;88.06;72189.19;4971660;28;20233;-80
2023/05/30 05:03:47;;;;;;;25.93;12.40;;;;;;;-143.21;88.24;72187.19;4970699;28;20271;-79
2023/05/30 05:06:14;;;;;;;23.80;10.90;;;;;;;-143.21;87.72;72175.31;4971257;28;20631;-80
2023/05/30 05:08:42;;;;;;;15.63;8.90;;;;;;;-143.21;86.96;72177.28;4972124;28;20258;-81
2023/05/30 05:11:09;;;;;;;16.53;9.07;;;;;;;-143.21;86.15;72171.34;4972554;28;20905;-81
2023/05/30 05:13:36;;;;;;;12.73;7.70;;;;;;;-143.21;85.24;72161.41;4967688;28;20267;-81
2023/05/30 05:16:06;;;;;;;13.73;7.67;;;;;;;-143.21;84.45;72155.47;4972096;28;20204;-80
2023/05/30 05:18:33;;;;;;;15.27;8.10;;;;;;;-143.21;83.78;72143.56;4968222;28;20228;-79
2023/05/30 05:21:00;;;;;;;15.07;8.20;;;;;;;-143.21;83.62;72143.56;4967741;28;20212;-81
2023/05/30 05:23:28;;;;;;;19.17;8.73;;;;;;;-143.21;83.90;72143.56;4971703;28;20201;-80
2023/05/30 05:25:56;;;;;;;17.33;9.00;;;;;;;-143.21;83.96;72133.66;4969751;28;20258;-79
2023/05/30 05:28:23;;;;;;;18.07;9.53;;;;;;;-143.21;84.09;72129.69;4969945;28;20206;-79
2023/05/30 05:30:50;;;;;;;21.37;10.40;;;;;;;-143.21;84.36;72125.72;4972113;28;20205;-79
2023/05/30 05:33:17;;;;;;;15.83;9.73;;;;;;;-143.21;84.64;72127.72;4967723;28;20722;-79
2023/05/30 05:35:46;;;;;;;16.47;9.43;;;;;;;-143.21;83.65;72113.81;4969855;28;20295;-80
2023/05/30 05:38:12;;;;;;;15.10;9.30;;;;;;;-143.21;83.37;72111.84;4970109;28;20301;-80
2023/05/30 05:40:39;;;;;;;17.23;9.77;;;;;;;-143.21;83.46;72105.91;4970888;28;20209;-81
2023/05/30 05:43:08;;;;;;;16.07;9.40;;;;;;;-143.21;83.56;72105.91;4971873;28;20283;-81
2023/05/30 05:45:35;;;;;;;24.67;9.93;;;;;;;-143.21;83.69;72099.94;4971477;28;20277;-81
2023/05/30 05:48:02;;;;;;;25.37;10.50;;;;;;;-143.21;83.65;72094.00;4969555;28;20216;-80
2023/05/30 05:50:29;;;;;;;20.63;10.53;;;;;;;-143.21;83.04;72078.13;4971221;28;20208;-80
2023/05/30 05:52:55;;;;;;;15.70;10.00;;;;;;;-143.21;83.25;72066.22;4971401;28;20220;-80
2023/05/30 05:55:23;;;;;;;26.60;11.00;;;;;;;-143.21;82.44;72052.34;4971379;28;20224;-81
2023/05/30 05:57:50;;;;;;;20.97;10.63;;;;;;;-143.21;80.88;72036.50;4970615;28;20216;-79
2023/05/30 06:00:19;;;;;;;20.57;11.00;;;;;;;-143.21;80.62;72028.56;4970854;28;20312;-80
2023/05/30 06:02:46;;;;;;;17.90;10.37;;;;;;;-143.21;79.89;72012.69;4971452;28;20216;-81
2023/05/30 06:05:12;;;;;;;18.87;10.97;;;;;;;-143.21;79.13;72000.78;4970649;28;20263;-80
2023/05/30 06:07:39;;;;;;;16.80;11.07;;;;;;;-143.21;79.25;71994.84;4968765;28;20672;-80
2023/05/30 06:10:08;;;;;;;20.17;11.40;;;;;;;-143.21;79.17;71988.91;4968123;28;20204;-79
2023/05/30 06:12:35;;;;;;;22.90;11.67;;;;;;;-143.21;79.41;71988.91;4970885;28;20209;-81
2023/05/30 06:15:01;;;;;;;21.77;11.10;;;;;;;-143.21;78.92;71973.03;4969579;28;20209;-80
2023/05/30 06:17:30;;;;;;;16.50;10.87;;;;;;;-143.21;79.03;71965.09;4967738;28;20216;-79
2023/05/30 06:19:57;;;;;;;25.60;11.40;;;;;;;-143.21;79.21;71959.16;4966961;28;20596;-80
2023/05/30 06:22:24;;;;;;;21.97;11.27;;;;;;;-143.21;79.11;71945.28;4969962;28;20197;-80
2023/05/30 06:24:51;;;;;;;27.00;10.73;;;;;;;-143.21;79.26;71933.38;4969387;28;20227;-80
2023/05/30 06:27:17;;;;;;;24.57;11.77;;;;;;;-143.21;78.87;71923.47;4964649;28;20201;-79
2023/05/30 06:29:44;;;;;;;27.07;11.60;;;;;;;-143.21;78.85;71915.53;4970410;28;20521;-79
2023/05/30 06:32:11;;;;;;;18.87;10.90;;;;;;;-143.21;77.87;71897.69;4970569;28;20315;-80
2023/05/30 06:34:39;;;;;;;21.00;11.33;;;;;;;-143.21;77.58;71881.81;4966940;28;20255;-80
2023/05/30 06:37:06;;;;;;;20.30;11.73;;;;;;;-143.21;77.27;71879.84;4969112;28;20578;-79
2023/05/30 06:39:33;;;;;;;22.93;11.60;;;;;;;-143.21;76.84;71867.94;4968907;28;20675;-80
2023/05/30 06:42:00;;;;;;;18.92;10.95;;;;;;;-143.21;76.47;71863.97;4969884;28;20211;-81
2023/05/30 06:44:27;;;;;;;19.50;11.23;;;;;;;-143.21;76.27;71856.03;4970493;28;20217;-80
2023/05/30 06:46:54;;;;;;;19.03;10.80;;;;;;;-143.21;75.83;71850.09;4968481;28;20711;-79
2023/05/30 06:49:21;;;;;;;20.23;11.48;;;;;;;-143.21;75.43;71854.06;4964678;28;20220;-79
2023/05/30 06:51:49;;;;;;;20.52;11.32;;;;;;;-143.21;75.43;71854.06;4970654;28;20203;-79
2023/05/30 06:54:16;;;;;;;23.52;13.27;;;;;;;-143.21;75.56;71852.06;4970684;28;20208;-79
2023/05/30 06:56:43;;;;;;;21.13;13.27;;;;;;;-143.21;75.48;71844.16;4970146;28;20220;-84
2023/05/30 06:59:09;;;;;;;19.85;12.75;;;;;;;-143.21;75.22;71844.16;4968883;28;20228;-81
2023/05/30 07:01:37;;;;;;;17.30;11.65;;;;;;;-143.21;74.91;71842.16;4970429;28;20216;-79
2023/05/30 07:04:04;;;;;;;16.50;10.23;;;;;;;-143.21;74.45;71840.19;4970224;28;20605;-79
2023/05/30 07:06:31;;;;;;;19.05;10.10;;;;;;;-143.21;74.45;71834.22;4967695;28;20213;-78
2023/05/30 07:09:00;;;;;;;21.95;10.73;;;;;;;-143.21;73.54;71830.25;4962230;28;20201;-79
2023/05/30 07:11:27;;;;;;;23.95;12.07;;;;;;;-143.21;74.20;71842.16;4970231;28;20232;-79
2023/05/30 07:13:53;;;;;;;20.40;12.32;;;;;;;-143.21;73.65;71832.25;4966688;28;20208;-79
2023/05/30 07:16:20;;;;;;;20.45;11.63;;;;;;;-143.21;73.51;71824.31;4970158;28;20208;-80
2023/05/30 07:18:47;;;;;;;18.85;11.43;;;;;;;-143.21;73.33;71818.38;4964062;28;20216;-80
2023/05/30 07:21:14;;;;;;;19.23;10.98;;;;;;;-143.21;72.73;71804.47;4953665;28;20223;-79
2023/05/30 07:23:41;;;;;;;20.50;10.07;;;;;;;-143.21;72.93;71800.53;4959722;28;20200;-80
2023/05/30 07:26:10;;;;;;;21.73;10.90;;;;;;;-143.21;72.61;71800.53;4970423;28;20284;-79
2023/05/30 07:28:36;;;;;;;22.15;10.82;;;;;;;-143.21;72.20;71790.59;4969998;28;20209;-80
2023/05/30 07:31:03;;;;;;;17.92;11.18;;;;;;;-143.21;71.71;71784.66;4970416;28;20263;-81
2023/05/30 07:33:30;;;;;;;17.10;10.20;;;;;;;-143.21;71.59;71774.75;4969579;28;20251;-79
2023/05/30 07:35:57;;;;;;;21.33;10.20;;;;;;;-143.21;71.80;71770.78;4966592;28;20205;-79
2023/05/30 07:38:24;;;;;;;15.02;9.93;;;;;;;-143.21;71.76;71754.91;4965370;28;20213;-79
2023/05/30 07:40:51;;;;;;;12.23;8.57;;;;;;;-143.21;71.74;71754.91;4968619;28;20224;-80
2023/05/30 07:43:19;;;;;;;13.10;9.20;;;;;;;-143.21;71.29;71739.06;4964984;28;20215;-80
2023/05/30 07:45:46;;;;;;;15.90;9.45;;;;;;;-143.21;71.39;71735.09;4969901;28;20240;-79
2023/05/30 07:48:13;;;;;;;20.92;9.68;;;;;;;-143.21;71.38;71727.16;4970965;28;20231;-79
2023/05/30 07:50:40;;;;;;;15.50;9.38;;;;;;;-143.21;70.59;71723.19;4970121;28;20212;-80
2023/05/30 07:53:07;;;;;;;19.73;9.52;;;;;;;-143.21;71.10;71717.25;4970778;28;20227;-81
2023/05/30 07:55:34;;;;;;;17.17;9.32;;;;;;;-143.21;70.36;71703.34;4970892;28;20208;-80
2023/05/30 07:58:01;;;;;;;22.05;9.40;;;;;;;-143.21;70.94;71687.50;4971903;28;20212;-80
2023/05/30 08:00:29;;;;;;;14.07;9.40;;;;;;;-143.21;70.97;71673.63;4967326;28;20221;-82
2023/05/30 08:02:56;;;;;;;20.38;9.25;;;;;;;-143.21;69.74;71651.81;4970972;28;20205;-80
2023/05/30 08:05:22;;;;;;;23.38;8.80;;;;;;;-143.21;69.66;71633.97;4971933;28;20593;-80
2023/05/30 08:07:49;;;;;;;22.13;9.68;;;;;;;-143.21;69.42;71626.03;4970010;28;20207;-81
2023/05/30 08:10:16;;;;;;;13.90;9.95;;;;;;;-143.21;68.89;71616.13;4971897;28;20197;-81
2023/05/30 08:12:46;;;;;;;16.20;10.20;;;;;;;-143.21;68.42;71614.13;4970844;28;20216;-87
2023/05/30 08:15:19;;;;;;;25.15;9.63;;;;;;;-143.21;68.43;71618.09;4971492;28;20205;-81
2023/05/30 08:18:11;;;;;;;16.42;8.95;;;;;;;-143.21;68.34;71604.22;4970411;28;20201;-78
2023/05/30 08:20:39;;;;;;;13.30;10.32;;;;;;;-143.21;67.69;71596.28;4950282;28;20229;-78
2023/05/30 08:23:09;;;;;;;14.35;8.20;;;;;;;-143.21;67.41;71592.31;4967220;28;20209;-78
2023/05/30 08:25:42;;;;;;;12.88;8.10;;;;;;;-143.21;67.09;71584.41;4966914;28;20213;-76
2023/05/30 08:28:10;;;;;;;14.57;7.53;;;;;;;-143.21;66.75;71586.38;4966553;28;20213;-78
2023/05/30 08:30:37;;;;;;;9.65;6.00;;;;;;;-143.21;66.63;71578.44;4965014;28;20204;-78
2023/05/30 08:33:04;;;;;;;12.07;6.32;;;;;;;-143.21;66.48;71578.44;4968873;28;20704;-80
2023/05/30 08:35:32;;;;;;;7.78;6.75;;;;;;;-143.21;67.79;71576.47;4969199;28;20268;-78
2023/05/30 08:37:59;;;;;;;12.80;7.18;;;;;;;-143.21;69.24;71602.25;4968076;28;20197;-78
2023/05/30 08:40:27;;;;;;;10.43;5.85;;;;;;;-143.21;69.07;71600.25;4968598;28;20233;-78
2023/05/30 08:42:55;;;;;;;9.05;5.88;;;;;;;-143.21;68.72;71606.22;4966080;28;20201;-79
2023/05/30 08:45:23;;;;;;;9.30;5.45;;;;;;;-143.21;68.32;71596.28;4968668;28;20208;-78
2023/05/30 08:47:55;;;;;;;10.18;7.18;;;;;;;-143.21;67.78;71596.28;4969527;28;20228;-81
2023/05/30 08:50:23;;;;;;;8.98;5.45;;;;;;;-143.21;67.11;71584.41;4967071;28;20200;-81
2023/05/30 08:52:58;;;;;;;20.77;10.32;;;;;;;-143.21;67.45;71570.53;4974767;28;20228;-78
2023/05/30 08:55:30;;;;;;;9.95;5.82;;;;;;;-143.21;67.18;71576.47;4966355;28;20208;-78
2023/05/30 08:58:08;;;;;;;9.52;4.53;;;;;;;-143.21;66.95;71554.66;4967728;28;20196;-78
2023/05/30 09:00:36;;;;;;;4.50;3.17;;;;;;;-143.21;65.64;71558.63;4969697;28;20296;-78
2023/05/30 09:03:06;;;;;;;6.60;3.72;;;;;;;-143.21;66.19;71564.56;4971321;28;20204;-77
2023/05/30 09:05:35;;;;;;;5.45;3.47;;;;;;;-143.21;65.35;71546.72;4971898;28;20258;-78
2023/05/30 09:08:04;;;;;;;4.20;3.35;;;;;;;-143.21;66.06;71528.88;4970408;28;20201;-78
2023/05/30 09:10:32;;;;;;;6.60;4.05;;;;;;;-143.21;65.77;71520.94;4971329;28;20197;-78
2023/05/30 09:12:59;;;;;;;5.82;3.25;;;;;;;-143.21;65.54;71526.91;4971826;28;20200;-78
2023/05/30 09:15:26;;;;;;;5.78;3.13;;;;;;;-143.21;66.01;71528.88;4972365;28;20279;-78
2023/05/30 09:18:02;;;;;;;4.53;3.60;;;;;;;-143.21;65.85;71532.84;4967639;28;20571;-78
2023/05/30 09:20:31;;;;;;;5.30;3.20;;;;;;;-143.21;65.40;71530.88;4971220;28;20759;-78
2023/05/30 09:22:58;;;;;;;5.20;3.00;;;;;;;-143.21;66.04;71530.88;4968729;28;20680;-78
2023/05/30 09:25:41;;;;;;;4.10;2.78;;;;;;;-143.21;65.68;71546.72;4967143;28;20695;-77
2023/05/30 09:28:08;;;;;;;2.65;2.40;;;;;;;-143.21;65.25;71548.72;4970611;28;20275;-78
2023/05/30 09:30:34;;;;;;;6.45;2.67;;;;;;;-143.21;65.91;71564.56;4971141;28;20207;-77
2023/05/30 09:33:02;;;;;;;3.40;2.58;;;;;;;-143.21;65.99;71568.53;4970897;28;20243;-79
2023/05/30 09:35:30;;;;;;;4.43;2.70;;;;;;;-143.21;66.89;71550.69;4971111;28;20640;-79
2023/05/30 09:38:03;;;;;;;4.30;3.15;;;;;;;-143.21;65.71;71544.75;4967436;28;20234;-78
2023/05/30 09:40:31;;;;;;;5.88;3.60;;;;;;;-143.21;66.56;71538.78;4968433;28;20228;-78
2023/05/30 09:42:58;;;;;;;5.28;4.20;;;;;;;-143.21;67.03;71546.72;4970285;28;20227;-78
2023/05/30 09:45:26;;;;;;;7.70;4.15;;;;;;;-143.21;66.68;71532.84;4969063;28;20281;-79
2023/05/30 09:47:53;;;;;;;7.82;3.90;;;;;;;-143.21;66.49;71522.94;4970967;28;20212;-79
2023/05/30 09:50:21;;;;;;;5.25;3.80;;;;;;;-143.21;66.66;71516.97;4968163;28;20923;-78
2023/05/30 09:52:51;;;;;;;7.20;3.72;;;;;;;-143.21;66.22;71507.06;4970327;28;20213;-79
2023/05/30 09:55:19;;;;;;;4.07;3.22;;;;;;;-143.21;65.10;71483.28;4967215;28;20565;-78
2023/05/30 09:57:48;;;;;;;5.00;3.08;;;;;;;-143.21;64.15;71483.28;4971441;28;20232;-78
2023/05/30 10:00:17;;;;;;;4.68;2.90;;;;;;;-143.21;63.72;71463.44;4970056;28;20229;-78
2023/05/30 10:02:45;;;;;;;6.22;2.80;;;;;;;-143.21;62.86;71453.53;4970707;28;20220;-78
2023/05/30 10:05:20;;;;;;;4.72;3.60;;;;;;;-143.21;68.37;71435.69;4971341;28;20212;-78
2023/05/30 10:07:48;;;;;;;8.38;3.58;;;;;;;-143.21;71.20;71394.06;4971506;28;20686;-78
2023/05/30 10:10:16;;;;;;;6.47;3.83;;;;;;;-143.21;68.45;71364.31;4971019;28;20563;-78
2023/05/30 10:12:43;;;;;;;5.68;4.47;;;;;;;-143.21;67.58;71328.63;4970391;28;20220;-77
2023/05/30 10:15:12;;;;;;;8.32;4.40;;;;;;;-143.21;62.67;71312.78;4962529;28;20205;-80
2023/05/30 10:17:46;;;;;;;9.88;4.28;;;;;;;-143.21;62.10;71340.53;4967794;28;20224;-79
2023/05/30 10:20:15;;;;;;;6.45;4.05;;;;;;;-143.21;61.70;71346.47;4964825;28;20215;-81
2023/05/30 10:22:44;;;;;;;6.03;4.03;;;;;;;-143.21;61.49;71354.41;4971136;28;20242;-81
2023/05/30 10:25:13;;;;;;;6.63;4.20;;;;;;;-143.21;61.17;71360.34;4966565;28;20231;-82
2023/05/30 10:27:44;;;;;;;6.53;4.07;;;;;;;-143.21;61.98;71366.31;4971419;28;20243;-79
2023/05/30 10:30:18;;;;;;;3.97;3.50;;;;;;;-143.21;61.84;71346.47;4971156;28;20307;-81
2023/05/30 10:32:51;;;;;;;4.25;3.15;;;;;;;-143.21;60.36;71336.56;4971852;28;20208;-80
2023/05/30 10:35:22;;;;;;;7.88;3.65;;;;;;;-143.21;60.55;71328.63;4964078;28;20459;-80
2023/05/30 10:37:53;;;;;;;4.72;3.50;;;;;;;-143.21;60.42;71304.84;4970928;28;20370;-80
2023/05/30 10:40:30;;;;;;;5.32;3.10;;;;;;;-143.21;60.13;71285.03;4968769;28;20235;-79
2023/05/30 10:43:08;;;;;;;5.95;3.67;;;;;;;-143.21;59.97;71255.28;4970148;28;20201;-82
2023/05/30 10:45:57;;;;;;;6.65;3.53;;;;;;;-143.21;59.28;71243.38;4967325;28;20291;-79
2023/05/30 10:48:30;;;;;;;6.20;3.00;;;;;;;-143.21;59.64;71219.59;4967648;28;20193;-79
2023/05/30 10:51:01;;;;;;;6.65;3.08;;;;;;;-143.21;59.02;71211.66;4969866;28;20296;-80
2023/05/30 10:53:29;;;;;;;3.85;2.78;;;;;;;-143.21;59.50;71209.69;4966890;28;20201;-78
2023/05/30 10:56:00;;;;;;;4.28;3.00;;;;;;;-143.21;58.95;71183.91;4966421;28;20613;-80
2023/05/30 10:58:38;;;;;;;4.78;2.65;;;;;;;-143.21;57.74;71148.22;4969672;28;20239;-79
2023/05/30 11:01:26;;;;;;;5.53;2.85;;;;;;;-143.21;57.08;71104.59;4969935;28;20224;-81
2023/05/30 11:03:58;;;;;;;10.93;2.20;;;;;;;-143.21;54.62;71076.84;4965972;28;20205;-82
2023/05/30 11:06:31;;;;;;;2.40;2.08;;;;;;;-143.21;54.33;71084.78;4970995;28;20287;-83
2023/05/30 11:09:11;;;;;;;4.20;2.20;;;;;;;-143.21;55.28;71078.84;4966209;28;20675;-81
2023/05/30 11:11:41;;;;;;;4.70;2.78;;;;;;;-143.21;55.02;71076.84;4969309;28;20282;-80
2023/05/30 11:14:10;;;;;;;4.80;2.20;;;;;;;-143.21;55.54;71090.72;4968724;28;20201;-79
2023/05/30 11:16:50;;;;;;;5.88;2.35;;;;;;;-143.21;56.02;71120.47;4967868;28;20205;-78